Time;durP1;ratioP1;P1;durP2;ratioP2;P2;SDS_P1;SDS_P2;PMS_P1;PMS_P2;Temp;Humidity;BMP_temperature;BMP_pressure;BME280_temperature;BME280_humidity;BME280_pressure;Samples;Min_cycle;Max_cycle;Signal;HPM_P1;HPM_P2
2023/07/30 00:00:40;;;;;;;13.30;7.10;;;;;;;19.57;100.00;100505.93;109857;1241;72453;-68
2023/07/30 00:03:28;;;;;;;9.40;6.90;;;;;;;19.48;100.00;100507.00;109872;1240;64881;-68
2023/07/30 00:05:57;;;;;;;9.60;7.00;;;;;;;19.39;100.00;100509.05;109854;1240;57645;-68
2023/07/30 00:08:26;;;;;;;11.60;7.20;;;;;;;19.27;100.00;100504.91;109789;1241;72033;-68
2023/07/30 00:10:57;;;;;;;14.80;8.40;;;;;;;19.13;100.00;100506.16;109813;1240;72611;-67
2023/07/30 00:13:26;;;;;;;8.80;7.60;;;;;;;19.03;100.00;100507.87;109858;1240;60279;-67
2023/07/30 00:15:55;;;;;;;13.70;7.50;;;;;;;19.01;100.00;100512.63;109825;1241;74379;-68
2023/07/30 00:18:23;;;;;;;9.50;7.50;;;;;;;18.94;100.00;100511.73;109818;1242;62363;-67
2023/07/30 00:20:52;;;;;;;10.60;7.60;;;;;;;18.91;100.00;100515.72;109824;1240;60520;-69
2023/07/30 00:23:21;;;;;;;11.50;7.20;;;;;;;18.83;100.00;100511.38;109819;1240;62494;-67
2023/07/30 00:25:50;;;;;;;11.70;8.40;;;;;;;18.77;100.00;100510.49;109837;1240;71550;-68
2023/07/30 00:28:19;;;;;;;11.50;8.70;;;;;;;18.90;100.00;100509.61;109840;1240;69949;-68
2023/07/30 00:30:48;;;;;;;10.00;7.50;;;;;;;19.06;100.00;100508.80;109637;1241;74163;-68
2023/07/30 00:33:16;;;;;;;10.00;8.30;;;;;;;19.11;100.00;100511.27;109654;1245;63423;-68
2023/07/30 00:35:46;;;;;;;13.00;7.70;;;;;;;19.18;100.00;100514.44;109852;1241;60623;-68
2023/07/30 00:38:15;;;;;;;12.00;8.30;;;;;;;19.11;100.00;100513.45;109877;1240;73314;-67
2023/07/30 00:40:44;;;;;;;10.90;7.90;;;;;;;19.02;100.00;100514.47;109831;1240;61439;-68
2023/07/30 00:43:13;;;;;;;11.20;7.90;;;;;;;18.92;100.00;100518.04;109804;1240;59785;-68
2023/07/30 00:45:44;;;;;;;10.20;7.90;;;;;;;18.81;100.00;100516.21;109596;1241;73753;-68
2023/07/30 00:48:13;;;;;;;12.50;8.10;;;;;;;18.82;100.00;100513.07;109601;1244;57360;-69
2023/07/30 00:50:43;;;;;;;11.80;8.90;;;;;;;18.90;100.00;100508.55;109651;1241;57109;-68
2023/07/30 00:53:14;;;;;;;10.50;8.00;;;;;;;19.06;100.00;100502.17;109801;1240;72655;-68
2023/07/30 00:55:44;;;;;;;8.90;7.70;;;;;;;19.18;100.00;100497.80;109633;1240;60784;-67
2023/07/30 00:58:13;;;;;;;11.50;8.20;;;;;;;19.21;100.00;100496.25;109701;1241;70082;-67
2023/07/30 01:00:42;;;;;;;12.00;8.10;;;;;;;19.14;100.00;100495.62;109728;1241;72790;-68
2023/07/30 01:03:10;;;;;;;10.90;7.90;;;;;;;19.00;100.00;100497.66;109748;1242;63049;-67
2023/07/30 01:05:40;;;;;;;10.10;8.00;;;;;;;18.80;100.00;100495.17;109663;1244;57981;-67
2023/07/30 01:08:08;;;;;;;8.80;7.70;;;;;;;18.59;100.00;100500.64;109546;1241;73601;-67
2023/07/30 01:10:38;;;;;;;10.10;7.00;;;;;;;18.52;100.00;100504.31;109808;1242;62180;-67
2023/07/30 01:13:09;;;;;;;13.90;8.50;;;;;;;18.29;100.00;100505.86;109735;1243;58985;-67
2023/07/30 01:15:39;;;;;;;11.80;7.80;;;;;;;18.22;100.00;100510.77;109731;1240;72656;-68
2023/07/30 01:18:07;;;;;;;9.90;8.40;;;;;;;18.13;100.00;100507.58;109712;1242;57346;-68
2023/07/30 01:20:36;;;;;;;12.00;8.00;;;;;;;18.14;100.00;100509.20;109888;1241;57618;-67
2023/07/30 01:23:05;;;;;;;12.20;8.40;;;;;;;18.24;100.00;100514.52;109748;1240;72513;-67
2023/07/30 01:25:36;;;;;;;11.70;8.90;;;;;;;18.33;100.00;100515.27;109830;1241;72795;-66
2023/07/30 01:28:10;;;;;;;12.70;7.90;;;;;;;18.31;100.00;100516.20;109767;1244;59536;-67
2023/07/30 01:30:42;;;;;;;11.10;7.70;;;;;;;18.31;100.00;100515.94;109708;1241;71719;-68
2023/07/30 01:33:11;;;;;;;11.90;8.80;;;;;;;18.33;100.00;100516.80;109654;1244;57613;-67
2023/07/30 01:35:43;;;;;;;13.30;8.60;;;;;;;18.36;100.00;100514.66;109846;1242;57700;-67
2023/07/30 01:38:13;;;;;;;11.40;8.50;;;;;;;18.30;100.00;100514.35;109767;1240;72382;-68
2023/07/30 01:40:43;;;;;;;11.40;8.30;;;;;;;18.36;100.00;100512.60;109757;1244;61790;-67
2023/07/30 01:43:12;;;;;;;12.00;8.10;;;;;;;18.44;100.00;100507.61;109752;1241;70512;-67
2023/07/30 01:45:41;;;;;;;14.30;8.60;;;;;;;18.39;100.00;100505.13;109618;1241;74511;-68
2023/07/30 01:48:09;;;;;;;10.00;8.60;;;;;;;18.33;100.00;100502.19;109806;1242;57692;-68
2023/07/30 01:50:38;;;;;;;12.50;8.70;;;;;;;18.24;100.00;100502.82;109802;1242;57217;-68
2023/07/30 01:53:07;;;;;;;12.20;8.60;;;;;;;18.15;100.00;100503.58;109596;1245;62931;-67
2023/07/30 01:55:36;;;;;;;10.20;7.80;;;;;;;18.07;100.00;100508.08;109831;1241;70817;-68
2023/07/30 01:58:05;;;;;;;11.90;7.90;;;;;;;17.98;100.00;100512.82;109757;1240;70446;-68
2023/07/30 02:00:34;;;;;;;10.80;8.40;;;;;;;17.90;100.00;100515.88;109761;1241;72420;-67
2023/07/30 02:03:06;;;;;;;11.60;8.70;;;;;;;17.82;100.00;100519.73;109703;1242;63151;-68
2023/07/30 02:05:35;;;;;;;11.30;8.60;;;;;;;17.73;100.00;100517.26;109718;1241;61561;-67
2023/07/30 02:08:04;;;;;;;12.70;8.70;;;;;;;17.66;100.00;100523.83;109621;1240;73283;-67
2023/07/30 02:10:33;;;;;;;11.70;8.90;;;;;;;17.64;100.00;100526.17;109791;1240;72810;-67
2023/07/30 02:13:02;;;;;;;12.70;8.60;;;;;;;17.61;100.00;100527.97;109803;1242;59466;-67
2023/07/30 02:15:31;;;;;;;13.10;8.90;;;;;;;17.62;100.00;100531.29;109808;1240;72718;-67
2023/07/30 02:17:59;;;;;;;15.50;9.90;;;;;;;17.75;100.00;100527.28;109768;1242;63107;-69
2023/07/30 02:20:28;;;;;;;12.30;9.40;;;;;;;17.97;100.00;100526.33;109704;1240;61453;-68
2023/07/30 02:22:57;;;;;;;11.10;9.20;;;;;;;18.12;100.00;100528.80;109785;1242;62593;-68
2023/07/30 02:25:26;;;;;;;13.20;9.60;;;;;;;18.13;100.00;100531.10;109786;1242;61639;-68
2023/07/30 02:27:54;;;;;;;14.60;10.10;;;;;;;18.12;100.00;100535.56;109764;1241;69530;-67
2023/07/30 02:30:23;;;;;;;13.80;9.60;;;;;;;18.11;100.00;100536.36;109741;1240;73497;-68
2023/07/30 02:32:52;;;;;;;13.60;9.30;;;;;;;18.06;100.00;100538.10;109780;1242;57727;-68
2023/07/30 02:35:21;;;;;;;10.40;8.30;;;;;;;17.96;100.00;100544.47;109710;1242;57676;-68
2023/07/30 02:37:50;;;;;;;14.30;9.20;;;;;;;17.81;100.00;100548.52;109595;1240;73427;-67
2023/07/30 02:40:18;;;;;;;11.70;9.10;;;;;;;17.70;100.00;100549.92;109635;1240;70575;-68
2023/07/30 02:42:47;;;;;;;14.40;9.40;;;;;;;17.67;100.00;100551.39;109637;1241;60278;-68
2023/07/30 02:45:17;;;;;;;11.50;8.30;;;;;;;17.68;100.00;100552.84;109515;1244;63305;-68
2023/07/30 02:47:46;;;;;;;12.00;9.80;;;;;;;17.68;100.00;100553.02;109501;1243;57794;-68
2023/07/30 02:50:15;;;;;;;12.20;8.60;;;;;;;17.66;100.00;100549.84;109539;1244;57617;-68
2023/07/30 02:52:47;;;;;;;13.30;8.80;;;;;;;17.61;100.00;100545.30;109570;1245;62721;-68
2023/07/30 02:55:16;;;;;;;12.40;8.90;;;;;;;17.54;100.00;100542.02;109550;1241;72052;-68
2023/07/30 02:57:45;;;;;;;12.30;9.00;;;;;;;17.63;100.00;100544.15;109551;1241;69986;-68
2023/07/30 03:00:14;;;;;;;12.30;8.70;;;;;;;17.63;100.00;100547.36;109562;1241;73969;-67
2023/07/30 03:02:42;;;;;;;13.20;8.70;;;;;;;17.60;100.00;100544.37;109729;1242;63085;-68
2023/07/30 03:05:11;;;;;;;13.90;9.40;;;;;;;17.54;100.00;100542.52;109779;1242;61523;-68
2023/07/30 03:07:40;;;;;;;13.30;9.20;;;;;;;17.52;100.00;100536.84;109696;1245;62549;-66
2023/07/30 03:10:09;;;;;;;13.20;9.00;;;;;;;17.59;100.00;100534.23;109771;1242;61602;-66
2023/07/30 03:12:38;;;;;;;12.10;9.60;;;;;;;17.67;100.00;100534.98;109947;1239;69440;-67
2023/07/30 03:15:08;;;;;;;11.30;8.90;;;;;;;17.73;100.00;100534.90;109904;1242;63117;-67
2023/07/30 03:17:37;;;;;;;13.00;9.10;;;;;;;17.82;100.00;100536.95;109933;1242;62810;-67
2023/07/30 03:20:08;;;;;;;13.70;8.50;;;;;;;17.91;100.00;100533.15;109946;1239;61642;-67
2023/07/30 03:22:37;;;;;;;10.70;9.20;;;;;;;17.91;100.00;100533.35;109688;1241;73976;-67
2023/07/30 03:25:06;;;;;;;12.20;9.00;;;;;;;17.85;100.00;100532.39;109677;1240;72305;-67
2023/07/30 03:27:35;;;;;;;12.70;9.00;;;;;;;17.78;100.00;100529.14;109897;1240;71430;-68
2023/07/30 03:30:04;;;;;;;11.70;9.00;;;;;;;17.76;100.00;100529.89;109904;1241;72413;-69
2023/07/30 03:32:33;;;;;;;12.10;9.00;;;;;;;17.73;100.00;100534.31;109958;1242;57689;-68
2023/07/30 03:35:02;;;;;;;12.20;9.20;;;;;;;17.73;100.00;100541.94;109858;1241;61005;-68
2023/07/30 03:37:31;;;;;;;13.80;10.00;;;;;;;17.75;100.00;100543.72;109721;1240;73897;-68
2023/07/30 03:39:59;;;;;;;13.00;9.50;;;;;;;17.81;100.00;100543.17;109754;1242;71562;-67
2023/07/30 03:42:29;;;;;;;15.30;10.60;;;;;;;17.90;100.00;100537.15;109764;1241;60654;-67
2023/07/30 03:44:58;;;;;;;14.50;9.80;;;;;;;17.99;100.00;100531.42;109804;1242;62285;-67
2023/07/30 03:47:27;;;;;;;14.40;9.70;;;;;;;18.17;100.00;100532.10;109790;1242;57604;-68
2023/07/30 03:49:56;;;;;;;13.20;9.70;;;;;;;18.32;100.00;100532.34;109725;1241;57610;-69
2023/07/30 03:52:24;;;;;;;12.80;9.40;;;;;;;18.38;100.00;100530.25;109769;1241;73239;-68
2023/07/30 03:54:53;;;;;;;16.00;9.80;;;;;;;18.46;100.00;100530.82;109797;1241;61785;-67
2023/07/30 03:57:22;;;;;;;12.30;9.50;;;;;;;18.53;100.00;100539.67;109817;1241;58971;-67
2023/07/30 03:59:51;;;;;;;13.00;9.30;;;;;;;18.59;100.00;100535.71;109820;1242;62246;-67
2023/07/30 04:02:20;;;;;;;11.30;9.70;;;;;;;18.62;100.00;100530.23;109754;1242;61046;-68
2023/07/30 04:04:49;;;;;;;13.80;10.50;;;;;;;18.71;100.00;100533.48;109703;1241;57725;-68
2023/07/30 04:07:19;;;;;;;16.40;11.10;;;;;;;18.90;100.00;100535.54;109805;1241;71901;-69
2023/07/30 04:09:47;;;;;;;18.80;15.00;;;;;;;18.99;100.00;100539.10;109815;1241;72085;-68
2023/07/30 04:12:19;;;;;;;21.70;16.50;;;;;;;19.05;100.00;100537.89;109730;1241;59576;-67
2023/07/30 04:14:48;;;;;;;13.70;10.40;;;;;;;19.14;100.00;100544.91;109805;1242;73577;-68
2023/07/30 04:17:16;;;;;;;13.60;10.60;;;;;;;19.19;100.00;100552.11;109795;1242;63145;-68
2023/07/30 04:19:48;;;;;;;14.90;10.00;;;;;;;19.25;100.00;100554.04;109724;1243;57211;-67
2023/07/30 04:22:17;;;;;;;17.20;9.70;;;;;;;19.37;100.00;100554.45;109713;1241;72382;-68
2023/07/30 04:24:46;;;;;;;15.40;9.80;;;;;;;19.50;100.00;100551.30;109695;1241;71741;-68
2023/07/30 04:27:15;;;;;;;16.60;9.60;;;;;;;19.70;100.00;100553.07;109808;1242;68247;-68
2023/07/30 04:29:44;;;;;;;14.30;10.90;;;;;;;19.84;100.00;100554.27;109681;1241;73632;-68
2023/07/30 04:32:12;;;;;;;12.50;9.40;;;;;;;20.04;100.00;100555.23;109746;1240;63072;-68
2023/07/30 04:34:41;;;;;;;13.80;8.50;;;;;;;20.17;100.00;100555.31;109727;1241;57722;-67
2023/07/30 04:37:10;;;;;;;12.80;8.80;;;;;;;20.26;100.00;100549.92;109814;1241;62905;-68
2023/07/30 04:39:39;;;;;;;12.30;9.80;;;;;;;20.36;100.00;100550.70;109717;1241;60863;-69
2023/07/30 04:42:08;;;;;;;11.10;8.60;;;;;;;20.53;100.00;100547.55;109714;1241;59909;-70
2023/07/30 04:44:36;;;;;;;13.30;9.50;;;;;;;20.70;100.00;100551.73;109622;1240;73611;-67
2023/07/30 04:47:11;;;;;;;15.70;9.70;;;;;;;20.92;100.00;100548.70;109745;1244;57127;-68
2023/07/30 04:49:40;;;;;;;16.50;10.00;;;;;;;21.08;100.00;100545.50;109706;1241;57679;-68
2023/07/30 04:52:09;;;;;;;12.70;8.60;;;;;;;21.25;100.00;100542.89;109859;1241;62761;-69
2023/07/30 04:54:38;;;;;;;13.00;8.70;;;;;;;21.38;100.00;100541.02;109583;1242;61497;-68
2023/07/30 04:57:07;;;;;;;11.50;8.20;;;;;;;21.46;100.00;100539.66;109843;1241;70314;-67
2023/07/30 04:59:35;;;;;;;12.10;8.60;;;;;;;21.57;100.00;100546.70;109716;1245;73488;-67
2023/07/30 05:02:05;;;;;;;13.00;8.20;;;;;;;21.69;100.00;100552.42;109813;1241;57660;-68
2023/07/30 05:04:34;;;;;;;14.00;8.50;;;;;;;21.81;100.00;100559.40;109875;1242;61004;-67
2023/07/30 05:07:03;;;;;;;12.80;7.20;;;;;;;21.93;100.00;100560.30;109787;1241;73022;-68
2023/07/30 05:09:31;;;;;;;12.20;6.90;;;;;;;22.03;100.00;100561.02;109947;1241;62503;-69
2023/07/30 05:12:00;;;;;;;11.90;6.90;;;;;;;22.07;100.00;100556.13;109972;1240;58964;-68
2023/07/30 05:14:29;;;;;;;10.90;7.40;;;;;;;22.04;100.00;100550.28;109865;1240;73389;-73
2023/07/30 05:16:57;;;;;;;13.60;7.70;;;;;;;21.95;100.00;100541.31;109732;1242;63022;-75
2023/07/30 05:19:26;;;;;;;11.40;7.70;;;;;;;21.93;100.00;100537.65;109784;1240;57457;-75
2023/07/30 05:21:55;;;;;;;11.50;7.50;;;;;;;22.01;100.00;100538.96;109784;1241;62969;-72
2023/07/30 05:24:24;;;;;;;16.50;8.30;;;;;;;22.17;100.00;100536.84;109783;1241;72106;-72
2023/07/30 05:26:52;;;;;;;11.20;7.80;;;;;;;22.15;100.00;100532.09;109591;1241;69867;-72
2023/07/30 05:29:21;;;;;;;11.60;8.10;;;;;;;22.21;100.00;100529.02;109626;1241;62872;-73
2023/07/30 05:31:50;;;;;;;12.30;7.40;;;;;;;22.23;100.00;100525.33;109627;1242;57667;-71
2023/07/30 05:34:19;;;;;;;11.80;8.20;;;;;;;22.34;100.00;100529.76;109549;1244;60203;-72
2023/07/30 05:36:48;;;;;;;10.60;7.40;;;;;;;22.51;100.00;100530.96;109540;1241;73909;-74
2023/07/30 05:39:16;;;;;;;14.90;7.30;;;;;;;22.68;100.00;100530.63;109611;1241;71702;-74
2023/07/30 05:41:45;;;;;;;12.40;7.10;;;;;;;22.81;100.00;100525.44;109605;1240;59880;-71
2023/07/30 05:44:14;;;;;;;10.30;7.00;;;;;;;22.91;100.00;100524.34;109541;1241;63033;-72
2023/07/30 05:46:43;;;;;;;16.20;6.50;;;;;;;22.91;100.00;100527.52;109646;1242;61713;-73
2023/07/30 05:49:12;;;;;;;9.20;6.70;;;;;;;23.02;100.00;100528.25;109635;1241;61983;-74
2023/07/30 05:51:41;;;;;;;15.20;6.60;;;;;;;23.18;100.00;100524.41;109754;1241;73915;-71
2023/07/30 05:54:09;;;;;;;6.60;5.20;;;;;;;23.31;100.00;100518.31;109770;1240;61030;-73
2023/07/30 05:56:38;;;;;;;11.90;5.70;;;;;;;23.44;100.00;100514.97;109789;1241;59976;-71
2023/07/30 05:59:07;;;;;;;10.30;5.70;;;;;;;23.56;100.00;100514.97;109752;1242;72179;-71
2023/07/30 06:01:35;;;;;;;7.10;4.70;;;;;;;23.68;100.00;100516.83;109685;1245;57721;-70
2023/07/30 06:04:04;;;;;;;7.60;5.70;;;;;;;23.78;100.00;100515.80;109804;1241;60225;-71
2023/07/30 06:06:33;;;;;;;8.20;5.80;;;;;;;23.92;100.00;100511.42;109813;1240;63248;-71
2023/07/30 06:09:02;;;;;;;8.80;5.70;;;;;;;24.03;100.00;100505.65;109819;1241;61433;-72
2023/07/30 06:11:31;;;;;;;8.40;5.50;;;;;;;24.12;100.00;100504.44;109743;1243;70302;-69
2023/07/30 06:13:59;;;;;;;7.90;4.90;;;;;;;24.22;100.00;100506.12;109809;1241;74113;-70
2023/07/30 06:16:28;;;;;;;6.90;4.90;;;;;;;24.32;100.00;100506.33;109815;1242;57201;-70
2023/07/30 06:18:57;;;;;;;7.30;4.80;;;;;;;24.39;100.00;100502.77;109805;1242;57656;-71
2023/07/30 06:21:26;;;;;;;6.80;4.80;;;;;;;24.50;100.00;100505.94;109776;1241;73542;-70
2023/07/30 06:23:54;;;;;;;7.30;5.20;;;;;;;24.58;100.00;100507.58;109690;1242;63852;-70
2023/07/30 06:26:23;;;;;;;8.50;4.50;;;;;;;24.74;100.00;100506.27;109786;1240;70640;-70
2023/07/30 06:28:52;;;;;;;9.80;5.30;;;;;;;24.82;100.00;100508.34;109546;1241;63553;-70
2023/07/30 06:31:21;;;;;;;10.40;4.90;;;;;;;25.04;99.21;100510.71;109657;1241;59313;-70
2023/07/30 06:33:50;;;;;;;7.20;5.10;;;;;;;25.01;99.55;100510.41;109867;1241;57715;-70
2023/07/30 06:36:18;;;;;;;7.30;4.50;;;;;;;25.09;100.00;100509.84;109929;1239;65249;-70
2023/07/30 06:38:47;;;;;;;6.80;5.10;;;;;;;25.23;99.75;100510.61;109692;1241;61244;-70
2023/07/30 06:41:16;;;;;;;7.40;4.60;;;;;;;25.32;99.39;100509.54;109916;1241;59744;-70
2023/07/30 06:43:45;;;;;;;7.30;4.50;;;;;;;25.39;99.99;100509.47;109852;1241;72758;-70
2023/07/30 06:46:13;;;;;;;8.80;5.70;;;;;;;25.49;99.72;100509.46;109747;1241;60728;-69
2023/07/30 06:48:42;;;;;;;12.60;9.10;;;;;;;25.62;99.44;100509.48;109870;1240;57345;-73
2023/07/30 06:51:12;;;;;;;13.30;6.20;;;;;;;25.79;98.82;100509.02;109834;1242;62992;-70
2023/07/30 06:53:41;;;;;;;7.50;4.30;;;;;;;25.91;96.25;100512.02;109888;1240;60871;-70
2023/07/30 06:56:10;;;;;;;15.60;10.40;;;;;;;26.06;94.97;100516.48;109880;1240;69452;-70
2023/07/30 06:58:38;;;;;;;22.20;12.90;;;;;;;26.12;94.31;100517.41;109884;1241;65545;-70
2023/07/30 07:01:08;;;;;;;9.10;5.50;;;;;;;26.18;94.81;100518.89;109879;1241;57658;-72
2023/07/30 07:03:37;;;;;;;9.60;6.60;;;;;;;26.38;92.60;100511.99;109962;1241;60609;-71
2023/07/30 07:06:06;;;;;;;7.30;4.20;;;;;;;26.50;86.21;100512.20;109697;1241;73959;-70
2023/07/30 07:08:34;;;;;;;6.20;3.90;;;;;;;26.54;85.62;100507.66;109973;1241;72304;-72
2023/07/30 07:11:03;;;;;;;5.10;4.10;;;;;;;26.72;83.71;100507.19;109952;1240;59390;-72
2023/07/30 07:13:32;;;;;;;5.00;4.00;;;;;;;26.91;82.00;100501.38;109970;1241;62302;-72
2023/07/30 07:16:01;;;;;;;6.00;4.00;;;;;;;27.03;81.94;100501.28;109737;1240;62094;-72
2023/07/30 07:18:29;;;;;;;5.90;4.00;;;;;;;27.19;79.63;100503.45;109936;1239;60661;-72
2023/07/30 07:20:58;;;;;;;8.00;4.00;;;;;;;27.25;79.74;100501.10;109831;1241;62904;-72
2023/07/30 07:23:27;;;;;;;5.40;4.30;;;;;;;27.36;78.87;100496.41;109914;1241;61660;-69
2023/07/30 07:25:56;;;;;;;4.90;4.10;;;;;;;27.32;78.09;100492.75;109861;1240;70185;-69
2023/07/30 07:28:25;;;;;;;6.00;4.00;;;;;;;27.44;77.14;100489.55;109587;1239;74119;-71
2023/07/30 07:30:55;;;;;;;5.90;3.50;;;;;;;27.46;78.45;100487.20;109874;1239;61696;-71
2023/07/30 07:33:24;;;;;;;5.60;3.80;;;;;;;27.58;75.70;100482.95;109694;1244;57191;-71
2023/07/30 07:36:07;;;;;;;6.00;4.00;;;;;;;27.71;75.60;100491.41;109970;1241;62151;-72
2023/07/30 07:38:36;;;;;;;4.20;3.10;;;;;;;27.87;74.87;100493.66;109836;1241;61011;-72
2023/07/30 07:41:05;;;;;;;5.40;3.70;;;;;;;28.00;72.80;100488.94;109820;1240;59805;-71
2023/07/30 07:43:34;;;;;;;4.70;3.70;;;;;;;27.79;73.28;100480.65;109907;1241;62267;-72
2023/07/30 07:46:03;;;;;;;7.40;3.80;;;;;;;27.97;73.09;100477.32;109874;1241;57862;-70
2023/07/30 07:48:32;;;;;;;5.50;3.40;;;;;;;28.16;72.96;100469.91;109598;1241;57792;-70
2023/07/30 07:51:01;;;;;;;4.30;3.20;;;;;;;28.39;71.04;100468.84;109725;1240;72708;-69
2023/07/30 07:53:29;;;;;;;4.90;2.70;;;;;;;28.63;69.11;100474.73;109801;1241;72559;-70
2023/07/30 07:56:01;;;;;;;6.20;3.30;;;;;;;28.64;69.37;100476.60;109562;1240;59462;-70
2023/07/30 07:58:31;;;;;;;5.10;3.10;;;;;;;28.70;69.15;100476.41;109564;1241;64997;-69
2023/07/30 08:01:00;;;;;;;5.50;3.30;;;;;;;28.80;68.47;100473.33;109598;1244;60997;-72
2023/07/30 08:03:30;;;;;;;3.60;2.90;;;;;;;28.90;66.54;100472.69;109871;1239;57963;-72
2023/07/30 08:05:59;;;;;;;5.10;3.30;;;;;;;28.96;64.71;100470.73;109899;1241;61979;-71
2023/07/30 08:08:28;;;;;;;3.60;2.70;;;;;;;29.01;65.80;100463.30;109863;1241;60927;-70
2023/07/30 08:10:58;;;;;;;4.10;2.70;;;;;;;29.10;64.68;100458.27;109861;1241;70486;-71
2023/07/30 08:13:27;;;;;;;7.10;3.00;;;;;;;29.17;64.34;100455.82;109827;1241;73549;-70
2023/07/30 08:15:55;;;;;;;3.90;3.10;;;;;;;29.22;63.59;100453.31;109851;1242;61931;-68
2023/07/30 08:18:28;;;;;;;4.70;2.90;;;;;;;29.37;63.43;100450.13;109783;1242;57224;-70
2023/07/30 08:20:57;;;;;;;4.00;2.90;;;;;;;29.49;63.30;100453.16;109745;1240;64532;-71
2023/07/30 08:23:25;;;;;;;4.50;3.20;;;;;;;29.63;62.65;100448.25;109767;1241;71854;-71
2023/07/30 08:25:54;;;;;;;4.10;2.90;;;;;;;29.76;61.94;100443.69;109823;1239;60437;-72
2023/07/30 08:28:23;;;;;;;4.10;2.70;;;;;;;29.90;61.81;100430.95;109833;1242;63045;-74
2023/07/30 08:30:52;;;;;;;6.20;3.00;;;;;;;30.28;59.25;100428.63;109861;1240;60994;-71
2023/07/30 08:33:20;;;;;;;4.40;2.90;;;;;;;30.55;57.90;100438.39;109953;1239;57702;-70
2023/07/30 08:35:49;;;;;;;3.90;2.30;;;;;;;30.55;58.81;100434.78;109919;1241;63953;-71
2023/07/30 08:38:18;;;;;;;6.70;3.20;;;;;;;30.69;57.83;100429.69;109806;1241;60703;-70
2023/07/30 08:40:47;;;;;;;3.80;2.80;;;;;;;30.83;56.65;100421.84;109931;1241;70425;-73
2023/07/30 08:43:16;;;;;;;4.20;2.80;;;;;;;31.27;56.48;100418.99;109911;1241;73395;-73
2023/07/30 08:45:45;;;;;;;4.20;2.90;;;;;;;31.51;55.48;100425.66;109773;1242;61719;-73
2023/07/30 08:48:14;;;;;;;3.60;2.30;;;;;;;31.55;55.18;100424.77;109876;1242;57785;-72
2023/07/30 08:50:44;;;;;;;5.60;3.00;;;;;;;31.60;53.71;100426.98;109664;1244;62370;-71
2023/07/30 08:53:14;;;;;;;3.10;2.30;;;;;;;31.73;53.42;100433.36;109713;1241;61035;-69
2023/07/30 08:55:43;;;;;;;3.90;2.80;;;;;;;31.72;53.30;100431.95;109741;1241;59899;-71
2023/07/30 08:58:14;;;;;;;4.50;2.80;;;;;;;31.55;52.64;100431.48;109696;1240;74370;-70
2023/07/30 09:00:43;;;;;;;3.70;2.40;;;;;;;31.76;52.29;100432.58;109592;1241;57704;-71
2023/07/30 09:03:16;;;;;;;4.80;2.70;;;;;;;31.82;51.13;100431.19;109732;1239;61542;-71
2023/07/30 09:05:45;;;;;;;3.20;2.30;;;;;;;31.77;51.02;100428.33;109789;1239;65118;-70
2023/07/30 09:08:14;;;;;;;5.80;2.40;;;;;;;31.62;51.52;100423.80;109909;1239;71734;-70
2023/07/30 09:10:43;;;;;;;3.90;2.90;;;;;;;31.56;51.87;100424.31;109781;1242;60117;-71
2023/07/30 09:13:21;;;;;;;4.00;2.60;;;;;;;31.61;52.05;100425.15;109753;1242;72403;-71
2023/07/30 09:15:50;;;;;;;4.10;2.40;;;;;;;31.66;51.43;100422.92;109719;1240;57562;-71
2023/07/30 09:18:20;;;;;;;3.40;2.90;;;;;;;31.81;51.12;100425.28;109878;1240;57850;-71
2023/07/30 09:20:48;;;;;;;4.30;2.60;;;;;;;31.83;50.57;100424.22;109684;1244;65170;-71
2023/07/30 09:23:17;;;;;;;2.80;2.20;;;;;;;31.83;51.09;100419.91;109721;1243;61834;-71
2023/07/30 09:25:49;;;;;;;3.40;2.60;;;;;;;31.63;50.83;100414.80;109847;1241;61394;-72
2023/07/30 09:28:19;;;;;;;3.90;2.50;;;;;;;31.67;49.87;100413.48;109897;1241;64134;-72
2023/07/30 09:30:50;;;;;;;3.20;2.00;;;;;;;31.80;48.40;100414.11;109815;1242;57627;-72
2023/07/30 09:33:21;;;;;;;3.60;2.50;;;;;;;31.73;48.83;100414.25;109786;1242;57209;-71
2023/07/30 09:35:50;;;;;;;3.30;2.30;;;;;;;31.73;49.33;100413.48;109643;1242;62180;-70
2023/07/30 09:38:19;;;;;;;4.00;2.40;;;;;;;31.80;48.83;100414.86;109919;1241;71292;-71
2023/07/30 09:40:52;;;;;;;3.60;2.60;;;;;;;31.83;48.76;100416.39;109788;1241;60263;-70
2023/07/30 09:43:21;;;;;;;7.00;2.60;;;;;;;31.82;49.40;100411.09;109782;1239;64120;-70
2023/07/30 09:45:50;;;;;;;3.90;2.90;;;;;;;31.91;50.20;100403.92;109797;1241;60793;-72
2023/07/30 09:48:19;;;;;;;4.00;2.20;;;;;;;31.90;50.91;100399.21;109615;1241;61284;-72
2023/07/30 09:50:49;;;;;;;3.50;2.80;;;;;;;32.13;50.51;100393.98;109647;1240;73754;-72
2023/07/30 09:53:18;;;;;;;4.10;2.50;;;;;;;32.10;49.32;100395.89;109656;1244;62682;-71
2023/07/30 09:55:47;;;;;;;3.00;2.20;;;;;;;31.85;49.09;100394.10;109762;1240;59960;-71
2023/07/30 09:58:16;;;;;;;4.30;2.50;;;;;;;31.85;49.88;100387.67;109875;1241;65068;-69
2023/07/30 10:00:47;;;;;;;3.70;2.40;;;;;;;32.01;49.01;100383.04;109840;1241;57200;-71
2023/07/30 10:03:16;;;;;;;3.40;2.50;;;;;;;32.14;48.05;100376.63;109683;1244;57630;-72
2023/07/30 10:05:47;;;;;;;4.70;3.10;;;;;;;32.12;47.95;100371.81;109843;1241;64429;-69
2023/07/30 10:08:21;;;;;;;3.40;2.70;;;;;;;31.54;48.25;100366.30;109767;1242;72063;-70
2023/07/30 10:10:53;;;;;;;3.20;2.60;;;;;;;31.39;49.17;100367.48;109672;1241;60247;-68
2023/07/30 10:13:22;;;;;;;3.90;2.40;;;;;;;31.64;49.68;100366.65;109707;1241;72810;-70
2023/07/30 10:15:52;;;;;;;3.60;2.00;;;;;;;31.93;47.98;100362.99;109625;1241;57242;-74
2023/07/30 10:18:21;;;;;;;3.20;2.20;;;;;;;32.00;46.47;100359.91;109626;1241;57667;-70
2023/07/30 10:20:54;;;;;;;3.80;2.20;;;;;;;31.93;46.90;100357.87;109670;1241;62397;-68
2023/07/30 10:23:28;;;;;;;3.40;2.30;;;;;;;32.08;47.01;100356.83;109610;1241;61899;-68
2023/07/30 10:25:57;;;;;;;4.20;2.40;;;;;;;32.16;46.71;100356.77;109696;1240;61560;-69
2023/07/30 10:28:36;;;;;;;2.80;2.10;;;;;;;32.22;46.34;100357.48;109741;1239;73986;-68
2023/07/30 10:31:13;;;;;;;4.30;2.10;;;;;;;32.52;46.54;100353.27;109733;1241;61249;-68
2023/07/30 10:33:54;;;;;;;3.70;2.20;;;;;;;32.87;45.92;100358.05;109655;1239;61294;-68
2023/07/30 10:36:33;;;;;;;3.10;2.10;;;;;;;33.36;43.62;100350.96;109874;1240;64447;-69
2023/07/30 10:39:30;;;;;;;15.10;10.10;;;;;;;33.67;42.33;100347.63;109757;1241;61408;-69
2023/07/30 10:42:00;;;;;;;4.20;2.30;;;;;;;33.29;42.75;100342.84;109471;1240;59921;-70
2023/07/30 10:44:33;;;;;;;3.60;2.20;;;;;;;32.86;43.90;100339.05;109472;1244;73069;-69
2023/07/30 10:47:06;;;;;;;4.00;2.50;;;;;;;33.33;43.48;100340.64;109647;1241;57649;-68
2023/07/30 10:49:40;;;;;;;3.30;2.10;;;;;;;33.36;43.36;100335.13;109534;1244;57717;-69
2023/07/30 10:52:09;;;;;;;4.20;2.50;;;;;;;34.04;42.73;100331.42;109572;1240;62677;-69
2023/07/30 10:54:39;;;;;;;3.10;2.20;;;;;;;34.71;42.32;100331.59;109843;1240;62627;-69
2023/07/30 10:57:07;;;;;;;3.00;2.40;;;;;;;35.31;40.18;100333.83;109774;1241;61385;-75
2023/07/30 10:59:38;;;;;;;3.10;2.50;;;;;;;35.21;39.52;100329.88;109798;1240;63832;-74
2023/07/30 11:02:12;;;;;;;4.00;2.50;;;;;;;35.28;39.51;100329.11;109536;1244;61231;-73
2023/07/30 11:04:40;;;;;;;3.20;2.50;;;;;;;35.84;38.78;100326.48;109582;1240;59960;-74
2023/07/30 11:07:17;;;;;;;3.40;2.40;;;;;;;36.41;36.75;100325.88;109628;1241;63966;-71
2023/07/30 11:09:57;;;;;;;3.20;2.50;;;;;;;36.01;37.69;100324.28;109444;1241;71168;-71
2023/07/30 11:12:26;;;;;;;4.40;2.30;;;;;;;35.17;38.66;100319.39;109673;1240;60094;-72
2023/07/30 11:15:05;;;;;;;4.20;2.60;;;;;;;35.05;39.27;100321.58;109644;1240;73006;-72
2023/07/30 11:17:34;;;;;;;7.90;2.50;;;;;;;35.56;38.72;100317.05;109607;1242;62120;-71